createdAt,value
2022-09-25T00:01:18.085Z,100182.00
2022-09-25T00:03:44.526Z,100182.84
2022-09-25T00:06:19.895Z,100182.22
2022-09-25T00:08:47.054Z,100181.38
2022-09-25T00:11:16.597Z,100184.97
2022-09-25T00:13:44.620Z,100179.06
2022-09-25T00:16:17.548Z,100192.53
2022-09-25T00:19:02.719Z,100182.00
2022-09-25T00:21:35.281Z,100186.22
2022-09-25T00:24:07.195Z,100189.38
2022-09-25T00:26:37.374Z,100189.38
2022-09-25T00:29:05.460Z,100186.84
2022-09-25T00:31:32.719Z,100186.63
2022-09-25T00:34:04.432Z,100184.72
2022-09-25T00:36:32.038Z,100187.28
2022-09-25T00:38:59.458Z,100184.97
2022-09-25T00:41:30.068Z,100186.63
2022-09-25T00:43:58.757Z,100183.47
2022-09-25T00:46:33.403Z,100180.09
2022-09-25T00:49:12.778Z,100179.84
2022-09-25T00:51:47.807Z,100180.69
2022-09-25T00:54:19.198Z,100177.53
2022-09-25T00:56:48.721Z,100175.22
2022-09-25T00:59:19.758Z,100171.66
2022-09-25T01:01:49.350Z,100170.19
2022-09-25T01:04:16.534Z,100165.56
2022-09-25T01:06:43.458Z,100161.31
2022-09-25T01:09:09.972Z,100167.22
2022-09-25T01:11:36.805Z,100169.53
2022-09-25T01:14:09.038Z,100172.69
2022-09-25T01:16:42.616Z,100165.09
2022-09-25T01:19:23.976Z,100163.63
2022-09-25T01:22:09.242Z,100161.53
2022-09-25T01:25:24.287Z,100164.06
2022-09-25T01:27:57.044Z,100156.88
2022-09-25T01:30:30.227Z,100159.63
2022-09-25T01:32:59.744Z,100159.19
2022-09-25T01:35:39.781Z,100161.31
2022-09-25T01:38:34.325Z,100156.69
2022-09-25T01:41:20.739Z,100160.91
2022-09-25T01:44:13.547Z,100152.25
2022-09-25T01:46:47.424Z,100157.97
2022-09-25T01:49:44.114Z,100157.97
2022-09-25T01:52:17.425Z,100151.00
2022-09-25T01:54:52.638Z,100147.84
2022-09-25T01:58:10.965Z,100154.38
2022-09-25T02:00:41.574Z,100151.84
2022-09-25T02:03:13.513Z,100150.78
2022-09-25T02:05:50.463Z,100151.44
2022-09-25T02:08:28.486Z,100152.06
2022-09-25T02:10:59.742Z,100144.91
2022-09-25T02:13:37.191Z,100152.69
2022-09-25T02:16:10.454Z,100146.78
2022-09-25T02:18:57.142Z,100146.38
2022-09-25T02:21:48.245Z,100149.34
2022-09-25T02:24:23.388Z,100147.88
2022-09-25T02:26:58.387Z,100147.44
2022-09-25T02:29:25.065Z,100141.31
2022-09-25T02:31:59.727Z,100144.47
2022-09-25T02:34:28.466Z,100140.69
2022-09-25T02:36:57.367Z,100142.16
2022-09-25T02:39:27.198Z,100145.31
2022-09-25T02:42:09.236Z,100147.03
2022-09-25T02:44:35.628Z,100150.78
2022-09-25T02:47:22.968Z,100142.16
2022-09-25T02:50:15.021Z,100153.34
2022-09-25T02:53:05.563Z,100149.75
2022-09-25T02:55:41.074Z,100148.25
2022-09-25T02:58:13.666Z,100147.22
2022-09-25T03:00:43.637Z,100149.53
2022-09-25T03:03:13.696Z,100144.28
2022-09-25T03:05:41.037Z,100142.78
2022-09-25T03:08:27.058Z,100134.38
2022-09-25T03:10:53.965Z,100140.91
2022-09-25T03:13:34.194Z,100138.59
2022-09-25T03:16:19.534Z,100128.91
2022-09-25T03:18:49.051Z,100133.34
2022-09-25T03:21:15.731Z,100139.00
2022-09-25T03:23:42.107Z,100137.31
2022-09-25T03:26:11.525Z,100142.78
2022-09-25T03:28:38.095Z,100137.72
2022-09-25T03:31:05.766Z,100135.19
2022-09-25T03:33:38.026Z,100138.16
2022-09-25T03:36:24.487Z,100139.44
2022-09-25T03:38:52.792Z,100138.16
2022-09-25T03:41:21.975Z,100139.19
2022-09-25T03:43:53.910Z,100139.84
2022-09-25T03:46:22.854Z,100140.66
2022-09-25T03:48:49.948Z,100137.31
2022-09-25T03:51:16.718Z,100132.50
2022-09-25T03:53:43.069Z,100128.91
2022-09-25T03:56:13.275Z,100129.53
2022-09-25T03:58:40.132Z,100135.66
2022-09-25T04:01:07.340Z,100125.53
2022-09-25T04:03:34.431Z,100134.38
2022-09-25T04:06:04.658Z,100131.66
2022-09-25T04:08:32.691Z,100133.72
2022-09-25T04:10:59.804Z,100130.78
2022-09-25T04:13:31.111Z,100128.50
2022-09-25T04:15:59.403Z,100132.69
2022-09-25T04:18:31.468Z,100130.59
2022-09-25T04:20:59.181Z,100127.03
2022-09-25T04:23:25.607Z,100126.38
2022-09-25T04:25:52.498Z,100130.38
2022-09-25T04:28:19.267Z,100125.94
2022-09-25T04:30:45.697Z,100127.22
2022-09-25T04:33:30.926Z,100129.72
2022-09-25T04:35:57.307Z,100127.63
2022-09-25T04:38:23.934Z,100127.84
2022-09-25T04:40:50.386Z,100133.13
2022-09-25T04:43:19.357Z,100126.38
2022-09-25T04:45:48.218Z,100139.41
2022-09-25T04:48:14.674Z,100138.97
2022-09-25T04:50:48.222Z,100137.75
2022-09-25T04:53:15.074Z,100133.50
2022-09-25T04:55:41.521Z,100144.25
2022-09-25T04:58:12.787Z,100137.09
2022-09-25T05:00:40.788Z,100137.75
2022-09-25T05:03:07.303Z,100144.44
2022-09-25T05:05:35.160Z,100141.28
2022-09-25T05:08:02.455Z,100146.56
2022-09-25T05:10:35.605Z,100143.41
2022-09-25T05:13:03.865Z,100142.34
2022-09-25T05:15:32.521Z,100138.97
2022-09-25T05:18:02.850Z,100139.41
2022-09-25T05:20:31.821Z,100129.09
2022-09-25T05:22:58.818Z,100140.25
2022-09-25T05:25:28.787Z,100135.19
2022-09-25T05:27:58.848Z,100137.09
2022-09-25T05:30:27.009Z,100127.63
2022-09-25T05:32:53.806Z,100126.56
2022-09-25T05:35:25.215Z,100129.09
2022-09-25T05:37:53.889Z,100129.53
2022-09-25T05:40:21.239Z,100128.25
2022-09-25T05:42:47.903Z,100138.56
2022-09-25T05:45:15.270Z,100144.44
2022-09-25T05:47:44.727Z,100137.94
2022-09-25T05:50:13.798Z,100141.09
2022-09-25T05:52:43.238Z,100136.88
2022-09-25T05:55:10.714Z,100134.78
2022-09-25T05:57:38.032Z,100144.25
2022-09-25T06:00:07.695Z,100132.88
2022-09-25T06:02:34.318Z,100140.25
2022-09-25T06:05:00.785Z,100140.25
2022-09-25T06:07:27.269Z,100139.19
2022-09-25T06:09:53.649Z,100143.63
2022-09-25T06:12:20.059Z,100137.31
2022-09-25T06:14:46.700Z,100137.31
2022-09-25T06:17:13.755Z,100146.38
2022-09-25T06:19:40.258Z,100148.25
2022-09-25T06:22:06.665Z,100143.63
2022-09-25T06:24:35.352Z,100139.19
2022-09-25T06:27:01.765Z,100150.56
2022-09-25T06:29:28.177Z,100147.63
2022-09-25T06:31:54.639Z,100145.75
2022-09-25T06:34:20.999Z,100149.09
2022-09-25T06:36:47.397Z,100140.47
2022-09-25T06:39:13.877Z,100142.59
2022-09-25T06:41:41.161Z,100148.50
2022-09-25T06:44:10.067Z,100145.94
2022-09-25T06:46:36.843Z,100156.69
2022-09-25T06:49:03.325Z,100152.69
2022-09-25T06:51:39.344Z,100152.03
2022-09-25T06:54:06.824Z,100156.47
2022-09-25T06:56:33.269Z,100152.25
2022-09-25T06:58:59.670Z,100154.16
2022-09-25T07:01:26.113Z,100154.16
2022-09-25T07:04:02.626Z,100159.19
2022-09-25T07:06:31.257Z,100167.22
2022-09-25T07:08:57.607Z,100155.84
2022-09-25T07:11:28.113Z,100159.22
2022-09-25T07:13:57.402Z,100160.50
2022-09-25T07:16:29.854Z,100159.66
2022-09-25T07:19:00.499Z,100154.78
2022-09-25T07:21:29.374Z,100159.44
2022-09-25T07:23:58.206Z,100159.44
2022-09-25T07:26:27.673Z,100165.97
2022-09-25T07:29:00.172Z,100163.06
2022-09-25T07:31:28.974Z,100160.53
2022-09-25T07:33:55.903Z,100169.78
2022-09-25T07:36:22.566Z,100174.00
2022-09-25T07:38:52.740Z,100169.78
2022-09-25T07:41:20.910Z,100170.00
2022-09-25T07:43:47.290Z,100168.31
2022-09-25T07:46:16.283Z,100166.00
2022-09-25T07:48:42.848Z,100165.59
2022-09-25T07:51:11.983Z,100164.75
2022-09-25T07:53:39.602Z,100166.00
2022-09-25T07:56:07.064Z,100162.63
2022-09-25T07:58:35.327Z,100163.88
2022-09-25T08:01:04.227Z,100170.19
2022-09-25T08:03:30.653Z,100164.53
2022-09-25T08:06:00.774Z,100162.84
2022-09-25T08:08:28.662Z,100163.91
2022-09-25T08:11:03.782Z,100170.63
2022-09-25T08:13:32.643Z,100164.72
2022-09-25T08:16:02.343Z,100164.69
2022-09-25T08:18:28.994Z,100163.22
2022-09-25T08:21:00.774Z,100160.44
2022-09-25T08:23:27.935Z,100170.56
2022-09-25T08:25:54.335Z,100173.06
2022-09-25T08:28:20.671Z,100164.00
2022-09-25T08:30:47.395Z,100169.69
2022-09-25T08:33:15.616Z,100172.00
2022-09-25T08:35:43.029Z,100179.59
2022-09-25T08:38:11.818Z,100181.91
2022-09-25T08:40:50.282Z,100172.22
2022-09-25T08:43:22.058Z,100180.22
2022-09-25T08:46:14.194Z,100168.66
2022-09-25T08:49:02.204Z,100171.16
2022-09-25T08:51:36.422Z,100173.91
2022-09-25T08:54:03.662Z,100169.50
2022-09-25T08:56:32.614Z,100169.66
2022-09-25T08:59:23.943Z,100164.19
2022-09-25T09:01:55.651Z,100169.69
2022-09-25T09:04:47.919Z,100160.97
2022-09-25T09:07:46.497Z,100166.50
2022-09-25T09:10:31.882Z,100156.75
2022-09-25T09:13:31.574Z,100155.88
2022-09-25T09:16:01.755Z,100164.09
2022-09-25T09:18:30.918Z,100165.94
2022-09-25T09:21:07.030Z,100173.97
2022-09-25T09:23:38.929Z,100170.38
2022-09-25T09:26:20.788Z,100172.88
2022-09-25T09:29:15.244Z,100165.25
2022-09-25T09:32:28.370Z,100180.69
2022-09-25T09:35:17.585Z,100168.66
2022-09-25T09:38:05.157Z,100172.44
2022-09-25T09:41:08.590Z,100171.19
2022-09-25T09:43:56.535Z,100164.88
2022-09-25T09:46:49.805Z,100169.53
2022-09-25T09:49:56.945Z,100166.75
2022-09-25T09:52:37.283Z,100168.22
2022-09-25T09:55:47.396Z,100163.81
2022-09-25T09:58:25.219Z,100167.94
2022-09-25T10:00:52.321Z,100161.59
2022-09-25T10:03:24.335Z,100165.59
2022-09-25T10:06:01.562Z,100160.09
2022-09-25T10:08:31.425Z,100152.53
2022-09-25T10:10:59.166Z,100161.41
2022-09-25T10:13:33.032Z,100161.41
2022-09-25T10:16:04.875Z,100151.94
2022-09-25T10:18:40.888Z,100155.78
2022-09-25T10:21:16.334Z,100155.38
2022-09-25T10:23:54.515Z,100159.13
2022-09-25T10:26:30.015Z,100148.78
2022-09-25T10:28:58.973Z,100148.97
2022-09-25T10:31:29.876Z,100151.06
2022-09-25T10:34:02.072Z,100156.38
2022-09-25T10:36:32.719Z,100158.41
2022-09-25T10:39:18.062Z,100153.50
2022-09-25T10:41:48.560Z,100157.97
2022-09-25T10:44:35.276Z,100147.00
2022-09-25T10:47:38.740Z,100149.09
2022-09-25T10:50:16.569Z,100149.72
2022-09-25T10:52:55.545Z,100145.88
2022-09-25T10:55:30.187Z,100151.06
2022-09-25T10:58:20.206Z,100153.88
2022-09-25T11:00:46.511Z,100149.69
2022-09-25T11:03:25.681Z,100149.69
2022-09-25T11:06:01.311Z,100145.75
2022-09-25T11:08:32.609Z,100151.97
2022-09-25T11:11:01.429Z,100151.31
2022-09-25T11:13:48.819Z,100148.69
2022-09-25T11:16:15.646Z,100156.66
2022-09-25T11:18:45.578Z,100151.72
2022-09-25T11:21:26.552Z,100152.66
2022-09-25T11:24:14.648Z,100153.13
2022-09-25T11:26:48.527Z,100157.34
2022-09-25T11:29:40.996Z,100155.28
2022-09-25T11:32:26.556Z,100150.88
2022-09-25T11:35:30.651Z,100152.16
2022-09-25T11:38:02.378Z,100145.84
2022-09-25T11:40:55.837Z,100142.03
2022-09-25T11:43:40.177Z,100146.47
2022-09-25T11:46:19.782Z,100148.34
2022-09-25T11:48:51.506Z,100140.78
2022-09-25T11:51:43.950Z,100137.28
2022-09-25T11:54:33.815Z,100141.72
2022-09-25T11:57:11.794Z,100143.63
2022-09-25T11:59:57.915Z,100128.78
2022-09-25T12:02:35.024Z,100130.78
2022-09-25T12:05:04.285Z,100133.53
2022-09-25T12:07:43.769Z,100132.41
2022-09-25T12:10:35.243Z,100126.53
2022-09-25T12:13:11.699Z,100132.31
2022-09-25T12:15:47.357Z,100134.50
2022-09-25T12:18:47.466Z,100136.81
2022-09-25T12:21:39.697Z,100135.38
2022-09-25T12:24:10.619Z,100134.81
2022-09-25T12:26:43.205Z,100130.84
2022-09-25T12:29:15.726Z,100143.34
2022-09-25T12:32:21.351Z,100130.78
2022-09-25T12:35:02.836Z,100119.94
2022-09-25T12:37:56.203Z,100130.06
2022-09-25T12:40:55.950Z,100120.69
2022-09-25T12:43:30.354Z,100118.88
2022-09-25T12:46:16.893Z,100115.16
2022-09-25T12:49:18.973Z,100121.16
2022-09-25T12:51:52.008Z,100125.00
2022-09-25T12:54:39.746Z,100117.41
2022-09-25T12:57:15.578Z,100117.47
2022-09-25T13:00:09.553Z,100123.19
2022-09-25T13:03:07.015Z,100118.53
2022-09-25T13:05:37.906Z,100119.41
2022-09-25T13:08:14.679Z,100119.59
2022-09-25T13:10:53.672Z,100119.59
2022-09-25T13:13:24.662Z,100120.38
2022-09-25T13:15:56.567Z,100110.78
2022-09-25T13:18:26.290Z,100116.13
2022-09-25T13:21:00.903Z,100105.59
2022-09-25T13:23:31.371Z,100116.34
2022-09-25T13:26:10.540Z,100111.59
2022-09-25T13:28:40.400Z,100108.31
2022-09-25T13:31:10.881Z,100118.34
2022-09-25T13:33:46.045Z,100115.06
2022-09-25T13:36:30.901Z,100115.44
2022-09-25T13:39:24.206Z,100108.25
2022-09-25T13:42:02.489Z,100112.16
2022-09-25T13:44:44.958Z,100114.94
2022-09-25T13:47:17.107Z,100121.84
2022-09-25T13:49:55.170Z,100123.78
2022-09-25T13:52:36.917Z,100120.00
2022-09-25T13:55:23.765Z,100130.75
2022-09-25T13:57:57.258Z,100129.97
2022-09-25T14:00:38.304Z,100129.41
2022-09-25T14:03:05.454Z,100136.34
2022-09-25T14:05:36.589Z,100131.56
2022-09-25T14:08:07.959Z,100139.22
2022-09-25T14:10:35.923Z,100133.53
2022-09-25T14:13:06.938Z,100131.63
2022-09-25T14:15:37.556Z,100136.94
2022-09-25T14:18:14.607Z,100126.19
2022-09-25T14:20:49.242Z,100138.94
2022-09-25T14:23:24.725Z,100145.34
2022-09-25T14:25:58.742Z,100134.81
2022-09-25T14:28:27.766Z,100140.91
2022-09-25T14:31:07.272Z,100133.06
2022-09-25T14:33:56.927Z,100139.41
2022-09-25T14:36:37.275Z,100133.50
2022-09-25T14:39:29.221Z,100133.13
2022-09-25T14:42:06.432Z,100128.81
2022-09-25T14:45:10.378Z,100127.97
2022-09-25T14:47:44.635Z,100131.81
2022-09-25T14:50:22.207Z,100130.78
2022-09-25T14:52:50.475Z,100137.16
2022-09-25T14:55:20.955Z,100124.69
2022-09-25T14:57:50.008Z,100134.22
2022-09-25T15:00:24.734Z,100135.91
2022-09-25T15:02:57.134Z,100146.28
2022-09-25T15:05:26.694Z,100148.88
2022-09-25T15:07:55.376Z,100146.69
2022-09-25T15:10:34.010Z,100143.53
2022-09-25T15:13:21.271Z,100160.25
2022-09-25T15:16:12.147Z,100154.53
2022-09-25T15:18:43.212Z,100143.81
2022-09-25T15:21:31.564Z,100151.88
2022-09-25T15:24:03.305Z,100151.06
2022-09-25T15:26:31.978Z,100146.59
2022-09-25T15:28:59.999Z,100137.91
2022-09-25T15:31:26.541Z,100151.06
2022-09-25T15:34:10.983Z,100149.97
2022-09-25T15:36:42.598Z,100159.72
2022-09-25T15:39:20.845Z,100149.00
2022-09-25T15:41:49.840Z,100145.66
2022-09-25T15:44:22.266Z,100145.25
2022-09-25T15:46:52.030Z,100137.84
2022-09-25T15:49:43.729Z,100143.16
2022-09-25T15:52:24.088Z,100146.75
2022-09-25T15:54:51.805Z,100134.34
2022-09-25T15:57:28.118Z,100140.03
2022-09-25T16:00:13.432Z,100127.41
2022-09-25T16:03:11.908Z,100127.81
2022-09-25T16:05:48.975Z,100120.06
2022-09-25T16:08:24.464Z,100123.22
2022-09-25T16:11:04.691Z,100132.91
2022-09-25T16:13:33.040Z,100133.97
2022-09-25T16:15:59.997Z,100136.50
2022-09-25T16:18:36.218Z,100132.28
2022-09-25T16:21:17.884Z,100134.19
2022-09-25T16:23:55.709Z,100147.25
2022-09-25T16:26:27.172Z,100143.69
2022-09-25T16:29:05.789Z,100142.19
2022-09-25T16:31:35.217Z,100150.19
2022-09-25T16:34:04.093Z,100151.25
2022-09-25T16:36:42.908Z,100153.78
2022-09-25T16:39:15.629Z,100154.41
2022-09-25T16:41:48.615Z,100165.59
2022-09-25T16:44:17.691Z,100158.84
2022-09-25T16:46:46.978Z,100159.06
2022-09-25T16:49:13.602Z,100164.72
2022-09-25T16:51:45.773Z,100165.81
2022-09-25T16:54:13.851Z,100163.84
2022-09-25T16:56:43.223Z,100157.53
2022-09-25T16:59:16.261Z,100162.38
2022-09-25T17:01:46.924Z,100165.56
2022-09-25T17:04:18.505Z,100166.16
2022-09-25T17:06:47.512Z,100168.47
2022-09-25T17:09:15.649Z,100158.81
2022-09-25T17:11:45.143Z,100163.44
2022-09-25T17:14:22.604Z,100164.06
2022-09-25T17:16:53.611Z,100169.53
2022-09-25T17:19:23.206Z,100169.53
2022-09-25T17:21:53.042Z,100172.50
2022-09-25T17:24:23.123Z,100170.38
2022-09-25T17:26:53.245Z,100169.34
2022-09-25T17:29:20.638Z,100162.81
2022-09-25T17:31:47.195Z,100177.53
2022-09-25T17:34:25.021Z,100170.78
2022-09-25T17:36:51.966Z,100172.25
2022-09-25T17:39:18.381Z,100176.69
2022-09-25T17:41:47.362Z,100179.84
2022-09-25T17:44:17.852Z,100181.94
2022-09-25T17:46:47.619Z,100183.41
2022-09-25T17:49:17.231Z,100181.09
2022-09-25T17:51:43.696Z,100183.41
2022-09-25T17:54:13.393Z,100180.25
2022-09-25T17:56:40.432Z,100169.72
2022-09-25T17:59:07.624Z,100180.66
2022-09-25T18:01:39.251Z,100181.50
2022-09-25T18:04:20.274Z,100185.72
2022-09-25T18:06:47.083Z,100182.56
2022-09-25T18:09:16.247Z,100184.66
2022-09-25T18:11:43.577Z,100192.88
2022-09-25T18:14:12.751Z,100192.44
2022-09-25T18:16:43.395Z,100194.75
2022-09-25T18:19:37.120Z,100202.53
2022-09-25T18:22:25.323Z,100193.25
2022-09-25T18:24:57.257Z,100198.78
2022-09-25T18:27:30.596Z,100199.16
2022-09-25T18:29:57.832Z,100196.22
2022-09-25T18:32:24.381Z,100198.34
2022-09-25T18:34:53.130Z,100193.91
2022-09-25T18:37:19.528Z,100192.66
2022-09-25T18:39:47.819Z,100197.50
2022-09-25T18:42:16.483Z,100199.81
2022-09-25T18:44:43.414Z,100205.47
2022-09-25T18:47:12.869Z,100200.00
2022-09-25T18:49:39.428Z,100205.91
2022-09-25T18:52:06.479Z,100193.06
2022-09-25T18:54:32.922Z,100204.19
2022-09-25T18:56:59.279Z,100197.50
2022-09-25T18:59:26.575Z,100207.59
2022-09-25T19:01:55.688Z,100208.84
2022-09-25T19:04:23.202Z,100219.81
2022-09-25T19:06:59.477Z,100217.69
2022-09-25T19:09:27.992Z,100219.75
2022-09-25T19:11:56.830Z,100226.72
2022-09-25T19:14:24.133Z,100210.94
2022-09-25T19:16:53.950Z,100217.44
2022-09-25T19:19:20.639Z,100218.91
2022-09-25T19:21:50.616Z,100212.81
2022-09-25T19:24:18.298Z,100213.59
2022-09-25T19:26:45.030Z,100220.97
2022-09-25T19:29:13.789Z,100223.47
2022-09-25T19:31:42.856Z,100222.44
2022-09-25T19:34:09.905Z,100219.25
2022-09-25T19:36:37.482Z,100219.47
2022-09-25T19:39:04.488Z,100218.00
2022-09-25T19:41:33.994Z,100217.16
2022-09-25T19:44:12.373Z,100228.72
2022-09-25T19:46:40.744Z,100227.88
2022-09-25T19:49:07.591Z,100220.91
2022-09-25T19:51:34.459Z,100217.34
2022-09-25T19:54:00.812Z,100213.97
2022-09-25T19:56:27.187Z,100219.44
2022-09-25T19:58:56.847Z,100216.91
2022-09-25T20:01:27.479Z,100217.31
2022-09-25T20:03:57.897Z,100216.88
2022-09-25T20:06:26.540Z,100221.31
2022-09-25T20:08:57.832Z,100213.06
2022-09-25T20:11:25.711Z,100219.97
2022-09-25T20:13:53.156Z,100223.34
2022-09-25T20:16:25.009Z,100224.38
2022-09-25T20:18:55.930Z,100225.81
2022-09-25T20:21:22.930Z,100213.59
2022-09-25T20:23:53.637Z,100218.63
2022-09-25T20:26:20.634Z,100223.06
2022-09-25T20:28:52.823Z,100217.78
2022-09-25T20:31:20.079Z,100216.09
2022-09-25T20:33:50.086Z,100225.78
2022-09-25T20:36:19.236Z,100221.19
2022-09-25T20:38:49.534Z,100225.13
2022-09-25T20:41:16.143Z,100220.69
2022-09-25T20:43:44.054Z,100220.69
2022-09-25T20:46:13.222Z,100219.88
2022-09-25T20:48:47.282Z,100218.19
2022-09-25T20:51:19.258Z,100212.28
2022-09-25T20:53:53.411Z,100215.22
2022-09-25T20:56:21.755Z,100220.91
2022-09-25T20:58:53.435Z,100214.31
2022-09-25T21:01:23.292Z,100213.47
2022-09-25T21:03:51.184Z,100218.09
2022-09-25T21:06:23.550Z,100218.50
2022-09-25T21:08:54.821Z,100222.25
2022-09-25T21:11:22.256Z,100224.38
2022-09-25T21:13:51.352Z,100221.78
2022-09-25T21:16:19.142Z,100225.78
2022-09-25T21:18:50.313Z,100211.69
2022-09-25T21:21:16.768Z,100219.03
2022-09-25T21:23:49.452Z,100215.00
2022-09-25T21:26:19.412Z,100208.25
2022-09-25T21:28:53.762Z,100215.81
2022-09-25T21:31:27.633Z,100208.59
2022-09-25T21:33:58.483Z,100209.88
2022-09-25T21:36:26.676Z,100205.84
2022-09-25T21:38:53.191Z,100206.88
2022-09-25T21:41:22.384Z,100206.88
2022-09-25T21:43:52.199Z,100209.19
2022-09-25T21:46:20.188Z,100208.56
2022-09-25T21:48:49.375Z,100204.13
2022-09-25T21:51:20.351Z,100196.97
2022-09-25T21:53:52.315Z,100185.03
2022-09-25T21:56:22.553Z,100191.53
2022-09-25T21:58:49.787Z,100192.56
2022-09-25T22:01:21.390Z,100189.81
2022-09-25T22:03:49.807Z,100185.34
2022-09-25T22:06:19.935Z,100184.91
2022-09-25T22:08:50.815Z,100182.97
2022-09-25T22:11:19.057Z,100187.72
2022-09-25T22:13:47.626Z,100191.03
2022-09-25T22:16:23.112Z,100193.09
2022-09-25T22:18:55.332Z,100196.00
2022-09-25T22:21:24.613Z,100192.19
2022-09-25T22:23:51.414Z,100195.50
2022-09-25T22:26:18.524Z,100195.88
2022-09-25T22:28:45.483Z,100194.97
2022-09-25T22:31:16.608Z,100183.63
2022-09-25T22:33:44.293Z,100188.13
2022-09-25T22:36:12.952Z,100181.00
2022-09-25T22:38:44.192Z,100179.25
2022-09-25T22:41:12.665Z,100181.06
2022-09-25T22:43:40.571Z,100173.63
2022-09-25T22:46:08.673Z,100183.63
2022-09-25T22:48:36.118Z,100181.28
2022-09-25T22:51:08.408Z,100187.13
2022-09-25T22:53:35.289Z,100188.34
2022-09-25T22:56:22.463Z,100181.97
2022-09-25T22:58:51.338Z,100169.97
2022-09-25T23:01:22.194Z,100180.03
2022-09-25T23:03:49.025Z,100174.06
2022-09-25T23:06:15.497Z,100170.88
2022-09-25T23:08:41.894Z,100175.88
2022-09-25T23:11:10.467Z,100174.75
2022-09-25T23:13:36.896Z,100170.91
2022-09-25T23:16:06.218Z,100168.19
2022-09-25T23:18:34.646Z,100171.84
2022-09-25T23:21:01.010Z,100163.88
2022-09-25T23:23:27.525Z,100167.34
2022-09-25T23:25:54.405Z,100168.75
2022-09-25T23:28:20.737Z,100164.72
2022-09-25T23:30:47.209Z,100156.72
2022-09-25T23:33:13.702Z,100157.97
2022-09-25T23:35:43.244Z,100163.03
2022-09-25T23:38:12.277Z,100157.03
2022-09-25T23:40:38.795Z,100156.84
2022-09-25T23:43:05.198Z,100148.38
2022-09-25T23:45:31.779Z,100146.69
2022-09-25T23:48:00.728Z,100143.31
2022-09-25T23:50:27.071Z,100153.94
2022-09-25T23:52:53.483Z,100147.00
2022-09-25T23:55:27.318Z,100141.25
2022-09-25T23:57:54.135Z,100143.34
